首页
METAR-TAF:

METAR-TAF

机场 :

诺福克海军基地

諾福克, 弗吉尼亚州, 美国

纬度: 36-56-01N, 经度: 076-17-45W, 海拔: 4米

当前天气观测

该预报发布于14分钟前的15:59 UTC
风速9节,风向南转西南
温度 31°C
湿度 59%
气压 1018 hPa
能見度: 14.5公里
多云层高于21000英尺
阴天层高于30000英尺

METAR: KNGU 161559Z 21009KT 9SM BKN210 OVC300 31/22 A3005 RMK AO2 SLP174 T03060217

时间: 12:13 (16:13 UTC)

预报

预报有效从16日的 15点(UTC)到 17日的 15点(UTC)
风速7节,风向南转西南
能见度10公里或以上
多云层高于20000英尺
从 16日的 1800点(UTC)
风速11节,风向南转西南
能见度10公里或以上
散云层高于4000英尺
多云层高于20000英尺
从 17日的 0600点(UTC)
风速5节,风向南转西南
能见度10公里或以上
多云层高于3000英尺
多云层高于15000英尺
阴天层高于25000英尺

TAF: KNGU 1615/1715 20007KT 9999 BKN200 QNH2996INS FM161800 20011KT 9999 SCT040 BKN200 QNH2990INS FM170600 20005KT 9999 BKN030 BKN150 OVC250 QNH2988INS T32/1619Z T25/1710Z FN20004

超过4000个机场的气象观测和天气预报(METAR&TAF报告)。

可查询的气象台以黄色和红色小点在地图上表示。

将鼠标移到小点上方,可查看气象台名称。

然后点击查看天气观测和预报。

如需切换地图:点击带黑十字的绿色按钮放大地图;点击带横线的绿色按钮缩小地图;或者点击绿色箭头查看邻近地区的地图。


METAR-TAF: